Time;durP1;ratioP1;P1;durP2;ratioP2;P2;SDS_P1;SDS_P2;PMS_P1;PMS_P2;Temp;Humidity;BMP_temperature;BMP_pressure;BME280_temperature;BME280_humidity;BME280_pressure;Samples;Min_cycle;Max_cycle;Signal;HPM_P1;HPM_P2
2023/06/23 00:01:38;;;;;;;0.57;0.47;;;13.10;99.90;;;;;;5015747;28;20190;-83
2023/06/23 00:04:11;;;;;;;1.42;0.60;;;13.30;99.90;;;;;;5015400;28;20222;-81
2023/06/23 00:06:42;;;;;;;1.83;0.55;;;13.50;99.90;;;;;;5015211;28;20245;-82
2023/06/23 00:09:15;;;;;;;1.08;0.60;;;13.60;99.90;;;;;;5015508;28;20191;-82
2023/06/23 00:11:48;;;;;;;1.08;0.50;;;13.80;99.90;;;;;;5015835;28;20190;-81
2023/06/23 00:14:19;;;;;;;1.15;0.50;;;13.90;99.90;;;;;;5015329;28;20207;-82
2023/06/23 00:16:50;;;;;;;1.10;0.40;;;14.10;99.90;;;;;;5015223;28;20772;-80
2023/06/23 00:19:23;;;;;;;1.50;0.80;;;14.20;99.90;;;;;;5015853;28;20234;-81
2023/06/23 00:21:54;;;;;;;0.77;0.50;;;14.30;99.90;;;;;;5015495;28;20534;-79
2023/06/23 00:24:24;;;;;;;0.65;0.60;;;14.40;99.90;;;;;;5014120;28;20233;-81
2023/06/23 00:26:55;;;;;;;1.50;0.75;;;14.60;99.90;;;;;;5015351;28;20205;-80
2023/06/23 00:29:26;;;;;;;0.57;0.47;;;14.60;99.90;;;;;;5015459;28;20195;-82
2023/06/23 00:31:57;;;;;;;1.13;0.50;;;14.60;99.90;;;;;;5014993;28;20194;-77
2023/06/23 00:34:29;;;;;;;1.90;0.45;;;14.80;99.90;;;;;;5015453;28;20207;-81
2023/06/23 00:37:00;;;;;;;1.02;0.60;;;14.90;99.90;;;;;;5014658;28;20199;-82
2023/06/23 00:39:31;;;;;;;1.17;0.50;;;15.00;99.90;;;;;;5015774;28;20558;-82
2023/06/23 00:42:07;;;;;;;3.35;0.50;;;15.10;99.90;;;;;;5015414;28;20534;-81
2023/06/23 00:44:38;;;;;;;0.60;0.40;;;15.20;99.90;;;;;;5015318;28;20215;-80
2023/06/23 00:47:10;;;;;;;0.80;0.60;;;15.30;99.90;;;;;;5014184;28;20554;-82
2023/06/23 00:49:43;;;;;;;0.98;0.40;;;15.40;99.90;;;;;;5014361;28;20194;-79
2023/06/23 00:52:14;;;;;;;3.05;1.15;;;15.50;99.90;;;;;;5014550;28;20186;-81
2023/06/23 00:54:45;;;;;;;2.20;0.50;;;15.60;99.90;;;;;;5014409;28;20192;-80
2023/06/23 00:57:16;;;;;;;2.45;0.50;;;15.60;99.90;;;;;;5014555;28;20195;-81
2023/06/23 00:59:46;;;;;;;3.75;0.40;;;15.70;99.90;;;;;;5014401;28;20649;-79
2023/06/23 01:02:17;;;;;;;2.17;0.50;;;15.80;99.90;;;;;;5014419;28;20195;-81
2023/06/23 01:04:50;;;;;;;1.70;0.40;;;15.80;99.90;;;;;;5014085;28;20219;-82
2023/06/23 01:07:30;;;;;;;1.20;0.50;;;15.90;99.90;;;;;;5014526;28;20199;-82
2023/06/23 01:10:09;;;;;;;2.60;0.43;;;15.90;99.90;;;;;;5014313;28;20186;-78
2023/06/23 01:12:50;;;;;;;2.63;0.40;;;16.00;99.90;;;;;;5014274;28;20278;-83
2023/06/23 01:15:25;;;;;;;0.85;0.40;;;16.10;99.90;;;;;;5014329;28;20197;-82
2023/06/23 01:18:00;;;;;;;0.43;0.30;;;16.10;99.90;;;;;;5014080;28;20222;-79
2023/06/23 01:20:37;;;;;;;1.13;0.35;;;16.10;99.90;;;;;;5013819;28;20234;-81
2023/06/23 01:23:30;;;;;;;1.13;0.35;;;16.20;99.90;;;;;;5013880;28;20187;-79
2023/06/23 01:26:11;;;;;;;2.08;0.40;;;16.30;99.90;;;;;;5014091;28;20635;-79
2023/06/23 01:28:50;;;;;;;0.82;0.40;;;16.30;99.90;;;;;;5014001;28;20195;-83
2023/06/23 01:31:25;;;;;;;0.70;0.40;;;16.40;99.90;;;;;;5014027;28;20606;-81
2023/06/23 01:34:00;;;;;;;0.88;0.52;;;16.50;99.90;;;;;;5013665;28;20237;-80
2023/06/23 01:36:37;;;;;;;4.03;0.50;;;16.70;99.90;;;;;;5013705;28;20550;-82
2023/06/23 01:39:11;;;;;;;1.52;0.30;;;16.80;99.90;;;;;;5013817;28;20187;-79
2023/06/23 01:41:48;;;;;;;0.65;0.22;;;16.80;99.90;;;;;;5013711;28;20191;-82
2023/06/23 01:44:24;;;;;;;0.63;0.40;;;16.80;99.90;;;;;;5013570;28;20226;-78
2023/06/23 01:46:58;;;;;;;0.30;0.30;;;16.90;99.90;;;;;;5013684;28;20198;-82
2023/06/23 01:49:33;;;;;;;0.50;0.30;;;16.90;99.90;;;;;;5013442;28;20209;-81
2023/06/23 01:52:06;;;;;;;0.68;0.30;;;17.00;99.90;;;;;;5013642;28;20186;-81
2023/06/23 01:54:40;;;;;;;1.35;0.20;;;17.00;99.90;;;;;;5013953;28;20261;-79
2023/06/23 01:57:17;;;;;;;0.73;0.30;;;17.10;99.90;;;;;;5013601;28;20253;-78
2023/06/23 01:59:51;;;;;;;0.40;0.40;;;17.20;99.90;;;;;;5013665;28;20195;-81
2023/06/23 02:02:23;;;;;;;0.40;0.40;;;17.20;99.90;;;;;;5013331;28;20191;-83
2023/06/23 02:04:54;;;;;;;1.75;0.40;;;17.20;99.90;;;;;;5013802;28;20222;-80
2023/06/23 02:07:26;;;;;;;0.70;0.30;;;17.30;99.90;;;;;;5013499;28;20631;-81
2023/06/23 02:09:58;;;;;;;0.90;0.30;;;17.50;99.90;;;;;;5013508;28;20580;-80
2023/06/23 02:12:29;;;;;;;0.63;0.40;;;17.50;99.90;;;;;;5013509;28;20191;-81
2023/06/23 02:15:03;;;;;;;0.30;0.30;;;17.60;99.90;;;;;;5013393;28;20563;-79
2023/06/23 02:17:35;;;;;;;0.63;0.40;;;17.60;99.90;;;;;;5013087;28;20222;-80
2023/06/23 02:20:14;;;;;;;3.13;0.40;;;17.70;99.90;;;;;;5013157;28;20241;-80
2023/06/23 02:22:48;;;;;;;0.40;0.40;;;17.80;99.90;;;;;;5013330;28;20195;-82
2023/06/23 02:25:20;;;;;;;1.75;0.47;;;17.90;99.90;;;;;;5013132;28;20223;-79
2023/06/23 02:27:52;;;;;;;0.28;0.22;;;18.00;99.90;;;;;;5013282;28;20261;-82
2023/06/23 02:30:24;;;;;;;0.30;0.30;;;18.10;99.90;;;;;;5013212;28;20191;-81
2023/06/23 02:32:56;;;;;;;1.55;0.32;;;18.20;99.90;;;;;;5013040;28;20199;-80
2023/06/23 02:35:27;;;;;;;3.45;0.38;;;18.20;99.90;;;;;;5013122;28;20199;-78
2023/06/23 02:38:03;;;;;;;0.30;0.28;;;18.30;99.90;;;;;;5013770;28;20187;-82
2023/06/23 02:40:36;;;;;;;1.05;0.30;;;18.20;99.90;;;;;;5013110;28;20214;-84
2023/06/23 02:43:12;;;;;;;0.50;0.32;;;18.20;99.90;;;;;;5013178;28;20556;-82
2023/06/23 02:45:49;;;;;;;0.63;0.40;;;18.20;99.90;;;;;;5012781;28;20245;-87
2023/06/23 02:48:23;;;;;;;2.38;0.40;;;18.20;99.90;;;;;;5014576;28;20191;-75
2023/06/23 02:50:57;;;;;;;0.95;0.30;;;18.20;99.90;;;;;;5016799;28;20195;-80
2023/06/23 02:53:31;;;;;;;0.47;0.30;;;18.20;99.90;;;;;;5017210;28;20233;-80
2023/06/23 02:56:07;;;;;;;0.40;0.30;;;18.20;99.90;;;;;;5016615;28;20233;-77
2023/06/23 02:58:39;;;;;;;1.25;0.30;;;18.20;99.90;;;;;;5016647;28;20248;-81
2023/06/23 03:01:14;;;;;;;0.85;0.38;;;18.30;99.90;;;;;;5016989;28;20198;-79
2023/06/23 03:03:47;;;;;;;0.70;0.20;;;18.30;99.90;;;;;;5016416;28;20194;-83
2023/06/23 03:06:24;;;;;;;0.40;0.20;;;18.30;99.90;;;;;;5016455;28;20191;-80
2023/06/23 03:08:55;;;;;;;0.60;0.20;;;18.30;99.90;;;;;;5016440;28;20192;-78
2023/06/23 03:11:26;;;;;;;0.50;0.30;;;18.30;99.90;;;;;;5016507;28;20195;-82
2023/06/23 03:13:57;;;;;;;2.33;0.60;;;18.20;99.90;;;;;;5016369;28;20217;-79
2023/06/23 03:16:33;;;;;;;0.75;0.30;;;18.10;99.90;;;;;;5016035;28;20195;-79
2023/06/23 03:19:14;;;;;;;0.70;0.40;;;18.10;99.90;;;;;;5015967;28;20317;-79
2023/06/23 03:21:48;;;;;;;1.63;0.45;;;18.20;99.90;;;;;;5016516;28;20609;-79
2023/06/23 03:24:22;;;;;;;0.40;0.40;;;18.20;99.90;;;;;;5016179;28;20234;-81
2023/06/23 03:26:56;;;;;;;0.35;0.30;;;18.30;99.90;;;;;;5016244;28;20191;-81
2023/06/23 03:29:29;;;;;;;0.40;0.20;;;18.40;99.90;;;;;;5016286;28;20630;-79
2023/06/23 03:32:06;;;;;;;0.28;0.22;;;18.40;99.90;;;;;;5016160;28;20192;-79
2023/06/23 03:34:43;;;;;;;0.98;0.30;;;18.40;99.90;;;;;;5016468;28;20198;-80
2023/06/23 03:37:17;;;;;;;0.30;0.30;;;18.40;99.90;;;;;;5016129;28;20197;-81
2023/06/23 03:39:55;;;;;;;0.60;0.30;;;18.60;99.90;;;;;;5015935;28;20190;-79
2023/06/23 03:42:27;;;;;;;0.77;0.52;;;18.60;99.90;;;;;;5015872;28;20191;-78
2023/06/23 03:45:01;;;;;;;1.45;0.30;;;18.60;99.90;;;;;;5015469;28;20589;-77
2023/06/23 03:47:36;;;;;;;1.95;0.60;;;18.60;99.90;;;;;;5016152;28;20619;-77
2023/06/23 03:50:13;;;;;;;2.58;0.75;;;18.60;99.90;;;;;;5015761;28;20190;-81
2023/06/23 03:52:46;;;;;;;0.50;0.30;;;18.60;99.90;;;;;;5015703;28;20187;-79
2023/06/23 03:55:19;;;;;;;1.08;0.50;;;18.60;99.90;;;;;;5015704;28;20187;-79
2023/06/23 03:57:53;;;;;;;0.47;0.20;;;18.60;99.90;;;;;;5015607;28;20388;-78
2023/06/23 04:00:25;;;;;;;0.40;0.30;;;18.70;99.90;;;;;;5014486;28;20207;-78
2023/06/23 04:02:59;;;;;;;1.38;0.40;;;18.70;99.90;;;;;;5015915;28;20609;-80
2023/06/23 04:05:32;;;;;;;0.30;0.30;;;18.70;99.90;;;;;;5015278;28;20226;-79
2023/06/23 04:08:04;;;;;;;0.20;0.20;;;18.80;99.90;;;;;;5015426;28;20213;-82
2023/06/23 04:10:37;;;;;;;0.13;0.13;;;18.70;99.90;;;;;;5015393;28;20202;-79
2023/06/23 04:13:10;;;;;;;0.40;0.20;;;18.70;99.90;;;;;;5015150;28;20197;-82
2023/06/23 04:15:42;;;;;;;1.13;0.30;;;18.70;99.90;;;;;;5015605;28;20242;-79
2023/06/23 04:18:17;;;;;;;0.57;0.40;;;18.70;99.90;;;;;;5015258;28;20227;-80
2023/06/23 04:20:48;;;;;;;0.98;0.50;;;18.60;99.90;;;;;;5014975;28;20384;-80
2023/06/23 04:23:20;;;;;;;0.15;0.15;;;18.60;99.90;;;;;;5015356;28;20199;-83
2023/06/23 04:25:52;;;;;;;1.05;0.20;;;18.60;99.90;;;;;;5014864;28;20223;-82
2023/06/23 04:28:26;;;;;;;1.77;0.60;;;18.60;99.90;;;;;;5014779;28;20191;-81
2023/06/23 04:30:57;;;;;;;0.28;0.20;;;18.60;99.90;;;;;;5014894;28;20195;-81
2023/06/23 04:33:30;;;;;;;1.00;0.20;;;18.60;99.90;;;;;;5015411;28;20203;-82
2023/06/23 04:36:07;;;;;;;1.65;0.63;;;18.60;99.90;;;;;;5014889;28;20199;-80
2023/06/23 04:38:39;;;;;;;0.70;0.70;;;18.60;99.90;;;;;;5014819;28;20194;-78
2023/06/23 04:41:14;;;;;;;0.73;0.60;;;18.60;99.90;;;;;;5014713;28;20210;-84
2023/06/23 04:43:46;;;;;;;0.30;0.30;;;18.60;99.90;;;;;;5014602;28;20194;-80
2023/06/23 04:46:22;;;;;;;0.38;0.30;;;18.60;99.90;;;;;;5014799;28;20218;-80
2023/06/23 04:48:58;;;;;;;2.10;0.57;;;18.50;99.90;;;;;;5014940;28;20241;-81
2023/06/23 04:51:34;;;;;;;0.40;0.30;;;18.50;99.90;;;;;;5014684;28;20556;-82
2023/06/23 04:54:12;;;;;;;2.08;0.45;;;18.50;99.90;;;;;;5014527;28;20560;-80
2023/06/23 04:56:48;;;;;;;1.27;0.30;;;18.50;99.90;;;;;;5014289;28;20317;-77
2023/06/23 04:59:22;;;;;;;1.55;0.30;;;18.60;99.90;;;;;;5014517;28;20202;-81
2023/06/23 05:01:53;;;;;;;1.77;0.40;;;18.60;99.90;;;;;;5014416;28;20191;-75
2023/06/23 05:04:27;;;;;;;2.35;0.52;;;18.50;99.90;;;;;;5014242;28;20217;-78
2023/06/23 05:06:59;;;;;;;2.28;0.40;;;18.50;99.90;;;;;;5015020;28;20277;-79
2023/06/23 05:09:30;;;;;;;1.08;0.32;;;18.40;99.90;;;;;;5014288;28;20190;-78
2023/06/23 05:12:03;;;;;;;3.03;0.65;;;18.40;99.90;;;;;;5013755;28;20560;-79
2023/06/23 05:14:36;;;;;;;0.77;0.50;;;18.50;99.90;;;;;;5014155;28;20199;-81
2023/06/23 05:17:07;;;;;;;0.20;0.20;;;18.40;99.90;;;;;;5014078;28;20229;-83
2023/06/23 05:19:42;;;;;;;2.13;0.40;;;18.30;99.90;;;;;;5013895;28;20326;-79
2023/06/23 05:22:16;;;;;;;1.30;0.20;;;18.30;99.90;;;;;;5014015;28;20196;-83
2023/06/23 05:24:51;;;;;;;1.92;0.30;;;18.30;99.90;;;;;;5013671;28;20764;-79
2023/06/23 05:27:26;;;;;;;0.85;0.40;;;18.30;99.90;;;;;;5013898;28;20537;-81
2023/06/23 05:30:01;;;;;;;2.08;0.40;;;18.30;99.90;;;;;;5013867;28;20227;-78
2023/06/23 05:32:36;;;;;;;0.65;0.22;;;18.30;99.90;;;;;;5014140;28;20638;-78
2023/06/23 05:35:11;;;;;;;0.20;0.20;;;18.20;99.90;;;;;;5014120;28;20201;-78
2023/06/23 05:37:44;;;;;;;0.63;0.30;;;18.20;99.90;;;;;;5013843;28;20197;-79
2023/06/23 05:40:17;;;;;;;0.70;0.30;;;18.20;99.90;;;;;;5013479;28;20202;-80
2023/06/23 05:42:48;;;;;;;0.57;0.20;;;18.20;99.90;;;;;;5013704;28;20194;-80
2023/06/23 05:45:19;;;;;;;0.60;0.30;;;18.20;99.90;;;;;;5013531;28;20218;-80
2023/06/23 05:48:00;;;;;;;0.40;0.30;;;18.10;99.90;;;;;;5014001;28;20265;-80
2023/06/23 05:50:36;;;;;;;0.30;0.30;;;18.10;99.90;;;;;;5013662;28;20195;-81
2023/06/23 05:53:09;;;;;;;0.60;0.40;;;18.00;99.90;;;;;;5013574;28;20186;-82
2023/06/23 05:55:52;;;;;;;0.35;0.30;;;18.00;99.90;;;;;;5013345;28;20201;-79
2023/06/23 05:58:25;;;;;;;0.73;0.25;;;18.10;99.90;;;;;;5013641;28;20221;-79
2023/06/23 06:00:58;;;;;;;0.40;0.40;;;17.90;99.90;;;;;;5013579;28;20198;-78
2023/06/23 06:03:36;;;;;;;0.40;0.38;;;17.90;99.90;;;;;;5013517;28;20191;-79
2023/06/23 06:06:10;;;;;;;1.17;0.30;;;17.90;99.90;;;;;;5013448;28;20222;-81
2023/06/23 06:08:42;;;;;;;0.20;0.20;;;17.80;99.90;;;;;;5013701;28;20190;-80
2023/06/23 06:11:16;;;;;;;2.17;0.35;;;17.80;99.90;;;;;;5013618;28;20689;-77
2023/06/23 06:13:49;;;;;;;0.82;0.30;;;17.70;99.90;;;;;;5013344;28;20198;-80
2023/06/23 06:16:21;;;;;;;0.57;0.30;;;17.70;99.90;;;;;;5013439;28;20195;-80
2023/06/23 06:18:54;;;;;;;0.43;0.30;;;17.60;99.90;;;;;;5013207;28;20235;-79
2023/06/23 06:21:28;;;;;;;1.17;0.30;;;17.60;99.90;;;;;;5013338;28;20672;-79
2023/06/23 06:24:01;;;;;;;0.30;0.30;;;17.50;99.90;;;;;;5015911;28;20195;-79
2023/06/23 06:26:32;;;;;;;1.02;0.30;;;17.40;99.90;;;;;;5017228;28;20218;-80
2023/06/23 06:29:05;;;;;;;0.88;0.50;;;17.40;99.90;;;;;;5017255;28;20304;-80
2023/06/23 06:31:36;;;;;;;0.93;0.30;;;17.30;99.90;;;;;;5017206;28;20282;-80
2023/06/23 06:34:10;;;;;;;2.05;0.57;;;17.30;99.90;;;;;;5017119;28;20197;-81
2023/06/23 06:36:43;;;;;;;0.82;0.40;;;17.20;99.90;;;;;;5017160;28;20201;-80
2023/06/23 06:39:15;;;;;;;2.13;0.40;;;17.20;99.90;;;;;;5016895;28;20198;-80
2023/06/23 06:41:47;;;;;;;0.40;0.30;;;17.10;99.90;;;;;;5017075;28;20191;-80
2023/06/23 06:44:17;;;;;;;0.43;0.35;;;17.10;99.90;;;;;;5017017;28;20260;-79
2023/06/23 06:46:49;;;;;;;0.40;0.40;;;17.00;99.90;;;;;;5016899;28;20219;-79
2023/06/23 06:49:21;;;;;;;1.33;0.40;;;17.00;99.90;;;;;;5016899;28;20191;-79
2023/06/23 06:51:55;;;;;;;1.23;1.13;;;16.90;99.90;;;;;;5017204;28;20283;-79
2023/06/23 06:54:26;;;;;;;1.80;0.60;;;16.80;99.90;;;;;;5016796;28;20653;-79
2023/06/23 06:56:58;;;;;;;0.98;0.50;;;16.70;99.90;;;;;;5016805;28;20191;-79
2023/06/23 06:59:29;;;;;;;2.10;0.60;;;16.70;99.90;;;;;;5016754;28;20554;-80
2023/06/23 07:02:00;;;;;;;2.03;0.60;;;16.60;99.90;;;;;;5016675;28;20187;-81
2023/06/23 07:04:32;;;;;;;0.80;0.50;;;16.60;99.90;;;;;;5016550;28;20278;-79
2023/06/23 07:07:05;;;;;;;1.30;0.40;;;16.50;99.90;;;;;;5016376;28;20245;-80
2023/06/23 07:09:35;;;;;;;0.73;0.40;;;16.40;99.90;;;;;;5016515;28;20191;-79
2023/06/23 07:12:08;;;;;;;0.63;0.50;;;16.40;99.90;;;;;;5016533;28;20217;-79
2023/06/23 07:14:39;;;;;;;0.60;0.50;;;16.30;99.90;;;;;;5016391;28;20191;-79
2023/06/23 07:17:10;;;;;;;1.05;0.60;;;16.20;99.90;;;;;;5015355;28;20222;-79
2023/06/23 07:19:40;;;;;;;1.90;0.52;;;16.10;99.90;;;;;;5009591;28;20707;-79
2023/06/23 07:22:13;;;;;;;2.25;0.90;;;16.10;99.90;;;;;;5011136;28;20607;-80
2023/06/23 07:24:44;;;;;;;1.60;0.60;;;16.00;99.90;;;;;;5012355;28;20286;-79
2023/06/23 07:27:16;;;;;;;1.23;0.70;;;16.00;99.90;;;;;;5002099;28;20234;-79
2023/06/23 07:29:47;;;;;;;0.80;0.73;;;16.00;99.90;;;;;;5014085;28;20203;-80
2023/06/23 07:32:17;;;;;;;0.65;0.65;;;15.90;99.90;;;;;;5013013;28;20202;-82
2023/06/23 07:34:48;;;;;;;1.15;0.60;;;15.90;99.90;;;;;;5010780;28;20195;-82
2023/06/23 07:37:21;;;;;;;1.15;0.57;;;15.80;99.90;;;;;;5012696;28;20203;-79
2023/06/23 07:39:52;;;;;;;0.68;0.40;;;15.80;99.90;;;;;;5014019;28;20199;-81
2023/06/23 07:42:22;;;;;;;2.78;0.60;;;15.80;99.90;;;;;;5021967;28;20198;-77
2023/06/23 07:44:53;;;;;;;1.33;0.70;;;15.80;99.90;;;;;;5023196;28;20674;-80
2023/06/23 07:47:24;;;;;;;0.75;0.70;;;15.80;99.90;;;;;;5010707;28;20206;-82
2023/06/23 07:49:55;;;;;;;2.05;0.57;;;15.80;99.90;;;;;;5011529;28;20198;-81
2023/06/23 07:52:27;;;;;;;0.50;0.30;;;15.80;99.90;;;;;;5014395;28;20198;-81
2023/06/23 07:54:58;;;;;;;2.08;0.60;;;15.70;99.90;;;;;;5015018;28;20202;-81
2023/06/23 07:57:29;;;;;;;1.40;0.63;;;15.70;99.90;;;;;;5013007;28;20562;-80
2023/06/23 08:00:00;;;;;;;0.80;0.70;;;15.70;99.90;;;;;;5014633;28;20663;-79
2023/06/23 08:02:31;;;;;;;2.28;0.70;;;15.70;99.90;;;;;;5012910;28;20198;-77
2023/06/23 08:05:03;;;;;;;1.35;0.60;;;15.70;99.90;;;;;;5009420;28;20657;-77
2023/06/23 08:07:36;;;;;;;0.70;0.60;;;15.70;99.90;;;;;;5011688;28;20207;-78
2023/06/23 08:10:07;;;;;;;1.20;0.60;;;15.70;99.90;;;;;;5003554;28;20221;-78
2023/06/23 08:12:37;;;;;;;1.73;0.50;;;15.60;99.90;;;;;;5012530;28;20199;-78
2023/06/23 08:15:09;;;;;;;0.68;0.60;;;15.60;99.90;;;;;;5013434;28;20206;-80
2023/06/23 08:17:40;;;;;;;1.15;0.40;;;15.60;99.90;;;;;;5014151;28;20597;-79
2023/06/23 08:20:11;;;;;;;0.52;0.50;;;15.60;99.90;;;;;;5010735;28;20231;-79
2023/06/23 08:22:44;;;;;;;1.35;0.70;;;15.60;99.90;;;;;;5012233;28;20282;-78
2023/06/23 08:25:18;;;;;;;0.95;0.70;;;15.50;99.90;;;;;;5005349;28;20204;-77
2023/06/23 08:27:49;;;;;;;1.13;0.60;;;15.50;99.90;;;;;;5012412;28;20203;-79
2023/06/23 08:30:27;;;;;;;1.02;0.63;;;15.50;99.90;;;;;;5013977;28;20195;-80
2023/06/23 08:32:59;;;;;;;0.98;0.65;;;15.50;99.90;;;;;;5011468;28;20572;-77
2023/06/23 08:35:29;;;;;;;1.23;0.65;;;15.50;99.90;;;;;;5023253;28;20198;-78
2023/06/23 08:38:02;;;;;;;1.10;0.82;;;15.50;99.90;;;;;;5014760;28;20651;-78
2023/06/23 08:40:34;;;;;;;1.50;0.88;;;15.50;99.90;;;;;;5018016;28;20569;-78
2023/06/23 08:43:05;;;;;;;1.33;0.70;;;15.40;99.90;;;;;;5001325;28;20238;-79
2023/06/23 08:45:40;;;;;;;1.60;0.80;;;15.30;99.90;;;;;;5011933;28;20195;-80
2023/06/23 08:48:11;;;;;;;1.58;0.90;;;15.30;99.90;;;;;;5000815;28;20208;-78
2023/06/23 08:50:42;;;;;;;0.85;0.75;;;15.30;99.90;;;;;;5011140;28;20224;-78
2023/06/23 08:53:15;;;;;;;0.77;0.65;;;15.30;99.90;;;;;;5005566;28;20190;-78
2023/06/23 08:55:46;;;;;;;1.48;1.10;;;15.30;99.90;;;;;;5013067;28;20202;-80
2023/06/23 08:58:17;;;;;;;1.67;1.00;;;15.20;99.90;;;;;;5009183;28;20198;-78
2023/06/23 09:00:49;;;;;;;1.38;0.80;;;15.20;99.90;;;;;;5000534;28;20206;-77
2023/06/23 09:03:20;;;;;;;1.40;0.82;;;15.20;99.90;;;;;;5011092;28;20197;-80
2023/06/23 09:05:50;;;;;;;0.60;0.60;;;15.10;99.90;;;;;;5008967;28;20214;-79
2023/06/23 09:08:24;;;;;;;1.23;0.60;;;15.10;99.90;;;;;;5009506;28;20203;-79
2023/06/23 09:10:55;;;;;;;0.85;0.80;;;15.10;99.90;;;;;;5016364;28;20203;-78
2023/06/23 09:13:30;;;;;;;0.93;0.70;;;15.10;99.90;;;;;;5016052;28;20282;-79
2023/06/23 09:16:02;;;;;;;0.93;0.70;;;15.10;99.90;;;;;;5013369;28;20198;-78
2023/06/23 09:18:38;;;;;;;0.88;0.65;;;15.00;99.90;;;;;;5013500;28;20219;-80
2023/06/23 09:21:10;;;;;;;1.45;0.65;;;15.00;99.90;;;;;;5007661;28;20207;-80
2023/06/23 09:23:58;;;;;;;0.82;0.77;;;14.90;99.90;;;;;;5020765;28;20194;-79
2023/06/23 09:26:29;;;;;;;1.73;0.70;;;14.90;99.90;;;;;;5015450;28;20215;-79
2023/06/23 09:29:17;;;;;;;1.30;0.80;;;14.80;99.90;;;;;;5013018;28;21066;-79
2023/06/23 09:31:50;;;;;;;1.98;0.90;;;14.80;99.90;;;;;;5002598;28;20209;-79
2023/06/23 09:34:25;;;;;;;1.13;0.70;;;14.70;99.90;;;;;;5013745;28;20214;-80
2023/06/23 09:37:06;;;;;;;0.82;0.80;;;14.60;99.90;;;;;;5012355;28;20210;-80
2023/06/23 09:39:40;;;;;;;1.85;0.88;;;14.60;99.90;;;;;;5013547;28;20228;-79
2023/06/23 09:42:12;;;;;;;1.27;0.88;;;14.60;99.90;;;;;;5013683;28;20205;-79
2023/06/23 09:44:45;;;;;;;1.40;0.60;;;14.50;99.90;;;;;;5011710;28;20674;-78
2023/06/23 09:47:18;;;;;;;1.27;0.90;;;14.50;99.90;;;;;;5012511;28;20318;-79
2023/06/23 09:49:50;;;;;;;2.03;0.90;;;14.40;99.90;;;;;;5003224;28;20561;-80
2023/06/23 09:52:26;;;;;;;0.85;0.70;;;14.40;99.90;;;;;;5012054;28;20556;-78
2023/06/23 09:54:59;;;;;;;1.65;0.90;;;14.40;99.90;;;;;;5010845;28;20294;-77
2023/06/23 09:57:30;;;;;;;0.95;0.77;;;14.30;99.90;;;;;;5007637;28;20201;-80
2023/06/23 10:00:01;;;;;;;1.98;0.63;;;14.30;99.90;;;;;;5006343;28;20199;-79
2023/06/23 10:02:32;;;;;;;1.40;0.70;;;14.30;99.90;;;;;;5007562;28;20195;-79
2023/06/23 10:05:05;;;;;;;1.10;0.82;;;14.30;99.90;;;;;;5008202;28;20230;-78
2023/06/23 10:07:37;;;;;;;0.65;0.65;;;14.30;99.90;;;;;;5003530;28;20746;-80
2023/06/23 10:10:10;;;;;;;1.05;0.90;;;14.30;99.90;;;;;;5011172;28;20210;-80
2023/06/23 10:12:41;;;;;;;0.80;0.80;;;14.20;99.90;;;;;;5000844;28;20217;-79
2023/06/23 10:15:13;;;;;;;1.52;0.77;;;14.20;99.90;;;;;;5010839;28;20199;-81
2023/06/23 10:17:44;;;;;;;2.88;0.70;;;14.20;99.90;;;;;;5011887;28;20226;-80
2023/06/23 10:20:16;;;;;;;1.27;0.80;;;14.10;99.90;;;;;;5008588;28;20231;-80
2023/06/23 10:22:49;;;;;;;0.80;0.60;;;14.10;99.90;;;;;;5012413;28;20248;-80
2023/06/23 10:25:23;;;;;;;2.17;0.90;;;14.10;99.90;;;;;;5011775;28;20650;-80
2023/06/23 10:27:59;;;;;;;1.30;0.82;;;14.10;99.90;;;;;;5012504;28;20755;-81
2023/06/23 10:30:32;;;;;;;1.08;0.73;;;14.00;99.90;;;;;;5010808;28;20253;-79
2023/06/23 10:33:04;;;;;;;1.23;0.60;;;14.10;99.90;;;;;;5011559;28;20198;-79
2023/06/23 10:35:38;;;;;;;1.25;0.73;;;14.10;99.90;;;;;;5011002;28;20203;-79
2023/06/23 10:38:11;;;;;;;1.17;0.60;;;14.10;99.90;;;;;;5011157;28;20203;-80
2023/06/23 10:40:51;;;;;;;1.15;0.60;;;14.10;99.90;;;;;;5005581;28;20222;-80
2023/06/23 10:43:24;;;;;;;1.27;0.60;;;14.10;99.90;;;;;;5007062;28;20557;-80
2023/06/23 10:45:55;;;;;;;1.33;0.65;;;14.10;99.90;;;;;;5004956;28;20197;-79
2023/06/23 10:48:27;;;;;;;0.65;0.50;;;14.10;99.90;;;;;;5009269;28;20204;-79
2023/06/23 10:50:59;;;;;;;0.80;0.60;;;14.10;99.90;;;;;;5007367;28;20663;-78
2023/06/23 10:53:32;;;;;;;0.85;0.50;;;14.00;99.90;;;;;;5005497;28;20200;-79
2023/06/23 10:56:05;;;;;;;0.65;0.45;;;14.10;99.90;;;;;;5008176;28;20201;-80
2023/06/23 10:58:51;;;;;;;0.98;0.60;;;14.10;99.90;;;;;;5012952;28;20194;-80
2023/06/23 11:01:22;;;;;;;0.43;0.43;;;14.10;99.90;;;;;;4999087;28;20195;-81
2023/06/23 11:03:56;;;;;;;0.60;0.60;;;14.10;99.90;;;;;;4993423;28;20191;-80
2023/06/23 11:06:31;;;;;;;0.63;0.60;;;14.00;99.90;;;;;;5008464;28;20218;-80
2023/06/23 11:09:03;;;;;;;1.98;0.65;;;14.00;99.90;;;;;;5010498;28;20200;-81
2023/06/23 11:11:37;;;;;;;1.63;1.10;;;14.00;99.90;;;;;;5016445;28;20203;-81
2023/06/23 11:14:18;;;;;;;1.90;1.17;;;13.90;99.90;;;;;;5035066;28;20194;-80
2023/06/23 11:16:53;;;;;;;1.27;0.95;;;13.90;99.90;;;;;;5030801;28;20325;-81
2023/06/23 11:19:31;;;;;;;1.92;0.68;;;13.90;99.90;;;;;;5016219;28;20241;-81
2023/06/23 11:22:12;;;;;;;0.52;0.45;;;13.90;99.90;;;;;;5014911;28;20209;-81
2023/06/23 11:24:55;;;;;;;0.60;0.60;;;13.80;99.90;;;;;;5016241;28;20199;-81
2023/06/23 11:27:27;;;;;;;0.57;0.57;;;13.80;99.90;;;;;;5015659;28;20219;-81
2023/06/23 11:30:19;;;;;;;0.80;0.43;;;13.80;99.90;;;;;;5016515;28;20206;-81
2023/06/23 11:33:30;;;;;;;0.57;0.50;;;13.80;99.90;;;;;;5016290;28;20290;-80
2023/06/23 11:36:04;;;;;;;0.60;0.60;;;13.70;99.90;;;;;;5012413;28;20642;-80
2023/06/23 11:38:36;;;;;;;0.82;0.60;;;13.70;99.90;;;;;;5014980;28;20741;-80
2023/06/23 11:41:06;;;;;;;1.20;0.50;;;13.60;99.90;;;;;;5015583;28;20203;-81
2023/06/23 11:43:42;;;;;;;0.40;0.40;;;13.60;99.90;;;;;;5015522;28;20190;-79
2023/06/23 11:46:14;;;;;;;0.93;0.50;;;13.60;99.90;;;;;;5015671;28;20230;-79
2023/06/23 11:48:45;;;;;;;0.85;0.40;;;13.60;99.90;;;;;;5002867;28;20542;-79
2023/06/23 11:51:18;;;;;;;1.05;0.60;;;13.60;99.90;;;;;;5030971;28;20202;-78
2023/06/23 11:53:49;;;;;;;2.47;0.80;;;13.60;99.90;;;;;;5012784;28;20652;-79
2023/06/23 11:56:20;;;;;;;1.40;1.00;;;13.60;99.90;;;;;;5015393;28;20202;-79
2023/06/23 11:58:57;;;;;;;1.83;0.80;;;13.60;99.90;;;;;;5015976;28;20195;-79
2023/06/23 12:01:28;;;;;;;1.40;0.80;;;13.60;99.90;;;;;;5015528;28;20264;-80
2023/06/23 12:03:59;;;;;;;0.98;0.70;;;13.50;99.90;;;;;;5015669;28;20187;-79
2023/06/23 12:06:29;;;;;;;0.60;0.60;;;13.50;99.90;;;;;;5015175;28;20571;-78
2023/06/23 12:09:00;;;;;;;0.70;0.60;;;13.40;99.90;;;;;;5015048;28;20227;-80
2023/06/23 12:11:32;;;;;;;0.95;0.70;;;13.40;99.90;;;;;;5015345;28;20191;-79
2023/06/23 12:14:05;;;;;;;0.98;0.80;;;13.30;99.90;;;;;;5015334;28;20202;-79
2023/06/23 12:16:39;;;;;;;1.10;1.00;;;13.30;99.90;;;;;;5014522;28;20231;-80
2023/06/23 12:19:10;;;;;;;1.20;0.90;;;13.20;99.90;;;;;;5013426;28;20238;-80
2023/06/23 12:21:41;;;;;;;1.30;0.90;;;13.10;99.90;;;;;;5014229;28;20202;-80
2023/06/23 12:24:13;;;;;;;1.38;0.88;;;13.10;99.90;;;;;;5014481;28;20203;-80
2023/06/23 12:26:44;;;;;;;0.98;0.90;;;13.00;99.90;;;;;;5015216;28;20643;-80
2023/06/23 12:29:21;;;;;;;1.25;0.90;;;12.90;99.90;;;;;;5015287;28;20225;-79
2023/06/23 12:31:58;;;;;;;1.30;1.20;;;12.80;99.90;;;;;;5015028;28;20269;-80
2023/06/23 12:34:39;;;;;;;1.17;1.00;;;12.70;99.90;;;;;;5012015;28;20560;-79
2023/06/23 12:37:11;;;;;;;1.08;0.98;;;12.60;99.90;;;;;;5014949;28;20194;-79
2023/06/23 12:39:42;;;;;;;1.23;1.05;;;12.60;99.90;;;;;;5012552;28;20270;-79
2023/06/23 12:42:13;;;;;;;1.75;1.00;;;12.50;99.90;;;;;;5012817;28;20194;-80
2023/06/23 12:44:46;;;;;;;1.20;1.10;;;12.50;99.90;;;;;;5014021;28;20537;-79
2023/06/23 12:47:16;;;;;;;1.35;1.00;;;12.40;99.90;;;;;;5014708;28;20334;-79
2023/06/23 12:49:47;;;;;;;1.60;1.00;;;12.40;99.90;;;;;;5026455;28;20204;-79
2023/06/23 12:52:18;;;;;;;0.95;0.88;;;12.40;99.90;;;;;;5019683;28;20194;-79
2023/06/23 12:54:51;;;;;;;1.20;0.90;;;12.30;99.90;;;;;;5013060;28;20199;-80
2023/06/23 12:57:23;;;;;;;1.38;1.00;;;12.20;99.90;;;;;;5014597;28;20600;-80
2023/06/23 12:59:56;;;;;;;2.22;0.80;;;12.20;99.90;;;;;;5014559;28;20203;-79
2023/06/23 13:02:27;;;;;;;1.48;1.10;;;12.20;99.90;;;;;;5013021;28;20213;-80
2023/06/23 13:04:57;;;;;;;0.95;0.90;;;12.10;99.90;;;;;;5012184;28;20670;-79
2023/06/23 13:07:28;;;;;;;1.63;0.90;;;12.10;99.90;;;;;;5011475;28;20686;-80
2023/06/23 13:09:59;;;;;;;1.00;0.90;;;12.10;99.90;;;;;;5010949;28;20203;-79
2023/06/23 13:12:30;;;;;;;1.05;0.90;;;12.00;99.90;;;;;;5012116;28;20559;-79
2023/06/23 13:15:03;;;;;;;1.23;0.80;;;12.00;99.90;;;;;;5011077;28;20203;-80
2023/06/23 13:17:34;;;;;;;0.93;0.77;;;12.00;99.90;;;;;;5012756;28;20277;-80
2023/06/23 13:20:06;;;;;;;1.00;0.90;;;11.90;99.90;;;;;;5014048;28;20235;-78